createdAt,value
2019-01-06T00:00:55.438Z,28.00
2019-01-06T00:03:54.659Z,29.50
2019-01-06T00:07:05.057Z,29.57
2019-01-06T00:10:37.139Z,27.93
2019-01-06T00:13:13.411Z,31.20
2019-01-06T00:15:48.698Z,27.47
2019-01-06T00:18:40.226Z,30.10
2019-01-06T00:21:31.268Z,31.13
2019-01-06T00:24:06.345Z,31.40
2019-01-06T00:26:45.449Z,26.50
2019-01-06T00:29:22.845Z,31.23
2019-01-06T00:31:57.206Z,27.50
2019-01-06T00:34:36.062Z,27.23
2019-01-06T00:37:24.163Z,32.23
2019-01-06T00:39:58.227Z,28.90
2019-01-06T00:43:06.886Z,25.87
2019-01-06T00:45:40.955Z,25.47
2019-01-06T00:48:15.229Z,25.83
2019-01-06T00:50:49.428Z,27.87
2019-01-06T00:53:26.432Z,28.80
2019-01-06T00:56:00.442Z,27.20
2019-01-06T00:58:43.537Z,32.77
2019-01-06T01:01:17.549Z,24.53
2019-01-06T01:03:51.766Z,25.27
2019-01-06T01:06:26.637Z,30.63
2019-01-06T01:09:06.809Z,28.23
2019-01-06T01:11:41.734Z,28.87
2019-01-06T01:14:19.646Z,27.67
2019-01-06T01:17:01.558Z,27.30
2019-01-06T01:19:43.531Z,30.43
2019-01-06T01:22:35.548Z,25.00
2019-01-06T01:25:09.804Z,32.23
2019-01-06T01:28:45.568Z,27.07
2019-01-06T01:32:18.001Z,23.67
2019-01-06T01:35:06.218Z,29.30
2019-01-06T01:37:44.047Z,29.30
2019-01-06T01:40:34.278Z,29.17
2019-01-06T01:43:08.463Z,27.93
2019-01-06T01:45:42.654Z,28.10
2019-01-06T01:48:19.648Z,31.97
2019-01-06T01:51:01.748Z,28.23
2019-01-06T01:54:34.591Z,25.17
2019-01-06T01:57:23.662Z,27.87
2019-01-06T02:00:16.932Z,25.70
2019-01-06T02:02:55.987Z,25.23
2019-01-06T02:06:06.012Z,27.50
2019-01-06T02:09:38.626Z,30.33
2019-01-06T02:12:16.504Z,24.33
2019-01-06T02:14:52.607Z,26.07
2019-01-06T02:18:25.481Z,25.13
2019-01-06T02:20:59.429Z,26.33
2019-01-06T02:23:39.579Z,27.10
2019-01-06T02:27:13.282Z,28.43
2019-01-06T02:29:58.302Z,26.77
2019-01-06T02:32:33.978Z,28.70
2019-01-06T02:35:06.549Z,25.30
2019-01-06T02:39:46.539Z,27.23
2019-01-06T02:42:20.622Z,21.57
2019-01-06T02:46:58.810Z,25.07
2019-01-06T02:49:39.367Z,25.77
2019-01-06T02:53:11.264Z,25.80
2019-01-06T02:55:45.417Z,24.40
2019-01-06T02:58:26.448Z,23.93
2019-01-06T03:01:00.602Z,25.80
2019-01-06T03:03:46.883Z,27.87
2019-01-06T03:06:27.762Z,21.80
2019-01-06T03:09:04.763Z,20.67
2019-01-06T03:11:42.856Z,22.20
2019-01-06T03:15:16.806Z,27.13
2019-01-06T03:17:50.828Z,22.43
2019-01-06T03:21:23.507Z,24.93
2019-01-06T03:24:04.771Z,24.20
2019-01-06T03:26:43.733Z,28.83
2019-01-06T03:30:19.266Z,24.20
2019-01-06T03:34:02.066Z,23.10
2019-01-06T03:38:43.652Z,22.97
2019-01-06T03:41:17.890Z,23.77
2019-01-06T03:43:51.975Z,24.93
2019-01-06T03:46:32.123Z,21.33
2019-01-06T03:49:13.337Z,25.27
2019-01-06T03:51:49.824Z,25.90
2019-01-06T03:54:23.959Z,22.80
2019-01-06T03:57:00.971Z,26.80
2019-01-06T03:59:40.009Z,25.40
2019-01-06T04:02:24.074Z,23.90
2019-01-06T04:06:03.855Z,20.93
2019-01-06T04:08:37.882Z,24.27
2019-01-06T04:13:17.703Z,26.53
2019-01-06T04:15:51.861Z,19.67
2019-01-06T04:18:31.966Z,24.00
2019-01-06T04:21:12.939Z,19.40
2019-01-06T04:23:48.987Z,24.10
2019-01-06T04:26:23.162Z,25.40
2019-01-06T04:29:05.258Z,22.57
2019-01-06T04:31:46.309Z,25.83
2019-01-06T04:34:20.358Z,23.10
2019-01-06T04:36:54.666Z,21.53
2019-01-06T04:39:28.899Z,20.73
2019-01-06T04:43:01.667Z,21.90
2019-01-06T04:45:36.069Z,19.33
2019-01-06T04:49:09.082Z,18.00
2019-01-06T04:52:41.539Z,23.50
2019-01-06T04:55:15.679Z,21.13
2019-01-06T04:57:49.685Z,22.00
2019-01-06T05:02:28.315Z,25.47
2019-01-06T05:05:06.446Z,16.70
2019-01-06T05:09:43.850Z,19.27
2019-01-06T05:12:53.910Z,19.07
2019-01-06T05:15:32.937Z,21.07
2019-01-06T05:20:11.405Z,21.40
2019-01-06T05:22:45.461Z,19.73
2019-01-06T05:25:19.670Z,21.37
2019-01-06T05:28:02.745Z,19.57
2019-01-06T05:30:37.135Z,22.63
2019-01-06T05:33:13.208Z,21.37
2019-01-06T05:35:52.182Z,23.50
2019-01-06T05:38:26.394Z,19.00
2019-01-06T05:41:00.730Z,24.03
2019-01-06T05:43:49.122Z,21.53
2019-01-06T05:46:31.213Z,20.80
2019-01-06T05:51:08.186Z,19.30
2019-01-06T05:54:43.915Z,18.30
2019-01-06T05:58:17.723Z,18.23
2019-01-06T06:00:51.886Z,18.70
2019-01-06T06:03:41.103Z,21.20
2019-01-06T06:06:46.368Z,19.57
2019-01-06T06:09:20.563Z,22.40
2019-01-06T06:11:57.581Z,24.50
2019-01-06T06:14:31.717Z,19.53
2019-01-06T06:17:22.941Z,23.17
2019-01-06T06:20:27.370Z,19.40
2019-01-06T06:23:01.376Z,17.97
2019-01-06T06:25:35.651Z,22.47
2019-01-06T06:37:21.058Z,17.07
2019-01-06T06:40:26.920Z,16.67
2019-01-06T06:57:34.530Z,19.33
2019-01-06T07:01:18.916Z,22.17
2019-01-06T07:03:53.026Z,21.37
2019-01-06T07:06:27.198Z,15.77
2019-01-06T07:10:01.999Z,17.47
2019-01-06T07:12:36.129Z,17.73
2019-01-06T07:15:10.559Z,17.80
2019-01-06T07:17:52.594Z,18.00
2019-01-06T07:20:27.046Z,18.10
2019-01-06T07:23:00.223Z,19.30
2019-01-06T07:25:39.467Z,17.43
2019-01-06T07:28:27.811Z,18.50
2019-01-06T07:31:32.542Z,18.20
2019-01-06T07:34:06.682Z,17.50
2019-01-06T07:36:46.951Z,22.67
2019-01-06T07:39:20.893Z,19.37
2019-01-06T07:41:57.018Z,19.23
2019-01-06T07:45:02.134Z,19.20
2019-01-06T07:48:11.574Z,21.83
2019-01-06T07:51:48.501Z,18.97
2019-01-06T07:54:22.631Z,18.87
2019-01-06T07:58:00.583Z,21.17
2019-01-06T08:00:35.554Z,19.23
2019-01-06T08:04:13.624Z,18.63
2019-01-06T08:08:51.178Z,17.53
2019-01-06T08:11:24.493Z,16.37
2019-01-06T08:14:56.323Z,22.83
2019-01-06T08:17:30.438Z,16.93
2019-01-06T08:20:04.509Z,19.17
2019-01-06T08:22:37.714Z,17.80
2019-01-06T08:26:12.576Z,19.30
2019-01-06T08:28:46.663Z,19.77
2019-01-06T08:31:23.709Z,19.87
2019-01-06T08:36:01.344Z,17.13
2019-01-06T08:38:35.670Z,17.73
2019-01-06T08:41:12.655Z,18.23
2019-01-06T08:44:49.756Z,18.53
2019-01-06T08:47:26.788Z,20.57
2019-01-06T08:49:59.998Z,22.27
2019-01-06T08:52:35.178Z,20.20
2019-01-06T08:55:09.350Z,17.70
2019-01-06T08:57:43.618Z,21.53
2019-01-06T09:00:17.821Z,18.57
2019-01-06T09:02:51.980Z,19.13
2019-01-06T09:05:27.955Z,17.93
2019-01-06T09:08:05.017Z,19.97
2019-01-06T09:10:43.266Z,21.17
2019-01-06T09:13:20.431Z,17.73
2019-01-06T09:18:00.902Z,27.30
2019-01-06T09:21:08.298Z,30.13
2019-01-06T09:25:46.268Z,26.63
2019-01-06T09:30:28.408Z,20.57
2019-01-06T09:35:05.203Z,24.33
2019-01-06T09:37:44.212Z,25.20
2019-01-06T09:40:19.203Z,27.93
2019-01-06T09:42:53.382Z,40.00
2019-01-06T09:45:27.654Z,30.30
2019-01-06T09:48:02.565Z,25.60
2019-01-06T09:50:39.778Z,23.13
2019-01-06T09:54:15.419Z,25.03
2019-01-06T09:57:50.357Z,18.30
2019-01-06T10:00:24.506Z,20.87
2019-01-06T10:03:04.748Z,20.53
2019-01-06T10:05:38.948Z,25.00
2019-01-06T10:08:13.104Z,24.17
2019-01-06T10:10:47.452Z,24.03
2019-01-06T10:13:27.575Z,18.77
2019-01-06T10:16:01.759Z,20.83
2019-01-06T10:18:35.990Z,25.07
2019-01-06T10:21:29.405Z,22.27
2019-01-06T10:24:03.712Z,25.00
2019-01-06T10:26:39.722Z,22.07
2019-01-06T10:31:19.427Z,20.83
2019-01-06T10:34:02.520Z,21.00
2019-01-06T10:36:37.603Z,21.10
2019-01-06T10:39:27.055Z,18.70
2019-01-06T10:42:01.070Z,16.80
2019-01-06T10:44:37.984Z,23.33
2019-01-06T10:47:20.990Z,18.80
2019-01-06T10:49:58.098Z,18.30
2019-01-06T10:52:32.525Z,23.97
2019-01-06T10:55:06.693Z,16.27
2019-01-06T10:57:40.987Z,17.77
2019-01-06T11:00:20.043Z,18.67
2019-01-06T11:02:54.148Z,16.53
2019-01-06T11:05:28.326Z,18.00
2019-01-06T11:08:04.404Z,18.73
2019-01-06T11:11:36.748Z,18.10
2019-01-06T11:14:15.912Z,17.77
2019-01-06T11:18:57.574Z,15.07
2019-01-06T11:23:33.733Z,18.43
2019-01-06T11:26:08.776Z,12.17
2019-01-06T11:28:47.739Z,14.70
2019-01-06T11:32:19.985Z,18.97
2019-01-06T11:35:11.261Z,14.43
2019-01-06T11:37:45.458Z,17.00
2019-01-06T11:41:25.922Z,18.37
2019-01-06T11:46:08.198Z,17.67
2019-01-06T11:48:42.464Z,14.43
2019-01-06T11:51:16.656Z,12.43
2019-01-06T11:55:59.752Z,21.03
2019-01-06T11:58:52.001Z,14.27
2019-01-06T12:01:26.202Z,14.07
2019-01-06T12:04:02.192Z,16.10
2019-01-06T12:07:12.563Z,20.30
2019-01-06T12:11:49.192Z,19.03
2019-01-06T12:16:32.498Z,17.23
2019-01-06T12:19:06.768Z,16.13
2019-01-06T12:21:48.937Z,13.90
2019-01-06T12:24:23.382Z,18.03
2019-01-06T12:27:01.598Z,16.17
2019-01-06T12:30:07.181Z,16.43
2019-01-06T12:32:41.158Z,21.13
2019-01-06T12:37:18.039Z,14.17
2019-01-06T12:43:58.051Z,15.67
2019-01-06T12:46:32.989Z,12.40
2019-01-06T12:51:12.897Z,13.10
2019-01-06T12:55:50.967Z,17.23
2019-01-06T12:59:29.485Z,15.40
2019-01-06T13:04:10.363Z,14.93
2019-01-06T13:07:03.606Z,14.70
2019-01-06T13:10:37.557Z,15.87
2019-01-06T13:13:17.669Z,14.77
2019-01-06T13:16:22.408Z,13.27
2019-01-06T13:18:59.294Z,14.10
2019-01-06T13:21:32.472Z,12.57
2019-01-06T13:24:07.276Z,15.33
2019-01-06T13:27:41.142Z,12.20
2019-01-06T13:30:19.399Z,12.40
2019-01-06T13:32:57.365Z,16.60
2019-01-06T13:36:29.201Z,15.70
2019-01-06T13:39:10.138Z,13.10
2019-01-06T13:41:46.545Z,20.57
2019-01-06T13:44:23.307Z,21.43
2019-01-06T13:47:31.810Z,46.20
2019-01-06T13:50:07.309Z,25.97
2019-01-06T13:53:43.987Z,24.00
2019-01-06T13:58:25.370Z,21.27
2019-01-06T14:01:02.282Z,25.73
2019-01-06T14:04:09.605Z,20.43
2019-01-06T14:06:43.728Z,19.07
2019-01-06T14:09:17.994Z,17.77
2019-01-06T14:11:52.229Z,18.33
2019-01-06T14:14:26.224Z,18.03
2019-01-06T14:17:00.295Z,20.77
2019-01-06T14:21:36.857Z,18.43
2019-01-06T14:24:11.006Z,20.63
2019-01-06T14:26:45.562Z,12.97
2019-01-06T14:29:19.746Z,19.47
2019-01-06T14:31:58.764Z,20.47
2019-01-06T14:34:41.916Z,17.23
2019-01-06T14:37:18.138Z,21.70
2019-01-06T14:39:52.492Z,20.50
2019-01-06T14:44:29.287Z,21.97
2019-01-06T14:47:03.343Z,22.80
2019-01-06T14:49:38.392Z,26.30
2019-01-06T14:52:28.698Z,29.73
2019-01-06T14:56:03.708Z,25.43
2019-01-06T14:58:37.927Z,33.70
2019-01-06T15:03:14.761Z,36.10
2019-01-06T15:05:48.698Z,34.63
2019-01-06T15:08:24.707Z,36.80
2019-01-06T15:10:58.887Z,33.73
2019-01-06T15:13:44.379Z,38.33
2019-01-06T15:16:18.491Z,25.53
2019-01-06T15:18:52.705Z,21.33
2019-01-06T15:22:26.544Z,28.43
2019-01-06T15:25:05.526Z,25.43
2019-01-06T15:27:40.407Z,28.67
2019-01-06T15:30:15.549Z,29.77
2019-01-06T15:33:25.120Z,37.33
2019-01-06T15:35:59.309Z,44.70
2019-01-06T15:38:33.568Z,41.87
2019-01-06T15:41:17.810Z,42.30
2019-01-06T15:43:51.320Z,32.50
2019-01-06T15:48:29.921Z,33.57
2019-01-06T15:51:09.974Z,33.10
2019-01-06T15:53:54.657Z,30.60
2019-01-06T15:58:33.751Z,32.50
2019-01-06T16:02:10.325Z,32.97
2019-01-06T16:04:44.541Z,31.73
2019-01-06T16:07:25.671Z,38.80
2019-01-06T16:10:04.703Z,34.80
2019-01-06T16:12:38.810Z,33.90
2019-01-06T16:15:23.420Z,34.33
2019-01-06T16:19:00.204Z,44.47
2019-01-06T16:22:32.899Z,41.70
2019-01-06T16:25:08.968Z,36.03
2019-01-06T16:29:49.367Z,34.73
2019-01-06T16:33:24.268Z,33.07
2019-01-06T16:37:00.297Z,26.93
2019-01-06T16:40:09.988Z,28.03
2019-01-06T16:42:47.175Z,22.83
2019-01-06T16:45:21.781Z,26.13
2019-01-06T16:48:58.764Z,25.83
2019-01-06T16:51:33.826Z,27.70
2019-01-06T16:54:07.003Z,31.93
2019-01-06T16:56:41.317Z,30.33
2019-01-06T16:59:45.990Z,26.20
2019-01-06T17:02:38.371Z,23.73
2019-01-06T17:06:10.399Z,28.13
2019-01-06T17:10:47.128Z,39.97
2019-01-06T17:13:21.363Z,30.97
2019-01-06T17:17:04.737Z,32.40
2019-01-06T17:19:39.747Z,28.00
2019-01-06T17:22:14.266Z,28.83
2019-01-06T17:24:48.413Z,32.37
2019-01-06T17:27:23.634Z,39.13
2019-01-06T17:29:57.903Z,32.70
2019-01-06T17:34:36.378Z,37.77
2019-01-06T17:37:16.434Z,35.80
2019-01-06T17:40:49.432Z,33.90
2019-01-06T17:44:24.187Z,29.63
2019-01-06T17:46:57.327Z,29.53
2019-01-06T17:51:39.127Z,31.53
2019-01-06T17:54:16.349Z,23.50
2019-01-06T17:57:49.572Z,25.53
2019-01-06T18:00:26.398Z,29.67
2019-01-06T18:03:00.696Z,27.40
2019-01-06T18:05:34.012Z,29.10
2019-01-06T18:10:12.674Z,33.53
2019-01-06T18:12:50.668Z,31.77
2019-01-06T18:15:26.661Z,33.00
2019-01-06T18:18:01.884Z,36.43
2019-01-06T18:20:37.737Z,32.77
2019-01-06T18:23:29.014Z,34.20
2019-01-06T18:27:04.016Z,30.90
2019-01-06T18:29:47.010Z,33.33
2019-01-06T18:32:21.131Z,31.87
2019-01-06T18:35:00.883Z,27.63
2019-01-06T18:37:36.325Z,33.83
2019-01-06T18:40:12.694Z,33.23
2019-01-06T18:42:57.110Z,30.77
2019-01-06T18:45:34.377Z,30.63
2019-01-06T18:53:52.034Z,29.57
2019-01-06T18:56:30.134Z,26.33
2019-01-06T19:01:08.757Z,27.00
2019-01-06T19:03:43.086Z,30.00
2019-01-06T19:06:16.277Z,36.80
2019-01-06T19:08:53.385Z,29.40
2019-01-06T19:11:27.432Z,36.13
2019-01-06T19:14:16.640Z,35.50
2019-01-06T19:17:49.091Z,45.77
2019-01-06T19:20:25.223Z,57.60
2019-01-06T19:23:29.830Z,56.60
2019-01-06T19:26:04.350Z,58.07
2019-01-06T19:28:41.881Z,53.17
2019-01-06T19:31:17.909Z,46.20
2019-01-06T19:36:54.802Z,36.87
2019-01-06T19:41:35.680Z,33.33
2019-01-06T19:44:09.696Z,39.93
2019-01-06T19:46:44.526Z,35.77
2019-01-06T19:49:37.628Z,34.13
2019-01-06T19:52:20.919Z,37.23
2019-01-06T19:55:01.929Z,39.83
2019-01-06T19:57:37.084Z,36.90
2019-01-06T20:00:11.939Z,32.87
2019-01-06T20:02:46.178Z,27.53
2019-01-06T20:05:19.730Z,42.93
2019-01-06T20:07:54.560Z,54.83
2019-01-06T20:10:34.687Z,62.00
2019-01-06T20:13:09.072Z,62.93
2019-01-06T20:15:43.501Z,67.70
2019-01-06T20:19:18.333Z,58.33
2019-01-06T20:22:04.136Z,34.20
2019-01-06T20:24:38.800Z,27.63
2019-01-06T20:29:15.178Z,28.53
2019-01-06T20:33:54.185Z,30.57
2019-01-06T20:36:32.076Z,37.27
2019-01-06T20:41:11.067Z,42.90
2019-01-06T20:43:45.163Z,37.97
2019-01-06T20:46:29.381Z,39.10
2019-01-06T20:49:03.506Z,40.50
2019-01-06T20:53:45.971Z,38.37
2019-01-06T20:56:23.001Z,28.63
2019-01-06T20:58:57.272Z,32.27
2019-01-06T21:01:31.475Z,35.93
2019-01-06T21:04:09.487Z,30.60
2019-01-06T21:06:42.741Z,35.27
2019-01-06T21:09:17.801Z,36.63
2019-01-06T21:11:57.812Z,52.67
2019-01-06T21:15:02.672Z,43.47
2019-01-06T21:17:36.895Z,45.00
2019-01-06T21:20:26.376Z,42.30
2019-01-06T21:25:06.682Z,39.50
2019-01-06T21:28:38.654Z,26.10
2019-01-06T21:33:14.921Z,35.70
2019-01-06T21:35:51.835Z,37.73
2019-01-06T21:38:32.908Z,38.63
2019-01-06T21:41:07.337Z,27.27
2019-01-06T21:43:42.158Z,30.13
2019-01-06T21:47:18.204Z,35.03
2019-01-06T21:49:52.498Z,33.17
2019-01-06T21:52:33.601Z,43.50
2019-01-06T21:55:23.957Z,36.20
2019-01-06T21:57:57.101Z,34.97
2019-01-06T22:00:31.420Z,31.00
2019-01-06T22:04:03.707Z,27.30
2019-01-06T22:06:38.117Z,24.63
2019-01-06T22:09:18.369Z,29.63
2019-01-06T22:11:52.513Z,25.57
2019-01-06T22:18:41.622Z,33.33
2019-01-06T22:22:15.131Z,21.43
2019-01-06T22:24:49.219Z,22.23
2019-01-06T22:27:23.333Z,28.00
2019-01-06T22:30:05.358Z,24.40
2019-01-06T22:33:42.114Z,26.63
2019-01-06T22:36:27.275Z,25.60
2019-01-06T22:39:19.662Z,29.73
2019-01-06T22:41:54.157Z,28.27
2019-01-06T22:44:42.321Z,21.47
2019-01-06T22:47:17.428Z,22.77
2019-01-06T22:50:21.883Z,25.23
2019-01-06T22:52:55.947Z,22.43
2019-01-06T22:56:31.806Z,27.40
2019-01-06T23:00:11.763Z,22.80
2019-01-06T23:02:45.899Z,23.60
2019-01-06T23:05:25.406Z,28.70
2019-01-06T23:08:10.493Z,21.43
2019-01-06T23:10:44.781Z,23.27
2019-01-06T23:13:17.981Z,21.93
2019-01-06T23:16:25.306Z,25.87
2019-01-06T23:18:59.375Z,25.07
2019-01-06T23:22:04.578Z,24.47
2019-01-06T23:24:42.796Z,27.23
2019-01-06T23:27:34.091Z,21.80
2019-01-06T23:32:11.614Z,24.70
2019-01-06T23:34:46.577Z,22.40
2019-01-06T23:37:20.611Z,27.50
2019-01-06T23:40:12.109Z,23.00
2019-01-06T23:44:55.272Z,21.07
2019-01-06T23:47:37.323Z,19.80
2019-01-06T23:50:18.141Z,20.87
2019-01-06T23:52:53.107Z,21.93
2019-01-06T23:57:33.183Z,22.40
